createdAt,value
2022-10-06T00:00:56.944Z,1019.52
2022-10-06T00:01:57.133Z,1019.54
2022-10-06T00:02:57.350Z,1019.49
2022-10-06T00:03:57.473Z,1019.53
2022-10-06T00:04:57.635Z,1019.50
2022-10-06T00:05:57.874Z,1019.54
2022-10-06T00:06:57.994Z,1019.55
2022-10-06T00:07:58.196Z,1019.55
2022-10-06T00:08:58.354Z,1019.55
2022-10-06T00:09:58.514Z,1019.56
2022-10-06T00:10:58.696Z,1019.62
2022-10-06T00:11:58.854Z,1019.65
2022-10-06T00:12:59.013Z,1019.67
2022-10-06T00:13:59.204Z,1019.68
2022-10-06T00:14:59.376Z,1019.68
2022-10-06T00:15:59.589Z,1019.70
2022-10-06T00:16:59.694Z,1019.72
2022-10-06T00:17:59.885Z,1019.75
2022-10-06T00:19:00.044Z,1019.71
2022-10-06T00:20:00.245Z,1019.72
2022-10-06T00:21:00.415Z,1019.74
2022-10-06T00:22:00.574Z,1019.72
2022-10-06T00:23:00.737Z,1019.70
2022-10-06T00:24:00.897Z,1019.68
2022-10-06T00:25:01.054Z,1019.68
2022-10-06T00:26:01.264Z,1019.72
2022-10-06T00:27:01.426Z,1019.70
2022-10-06T00:28:01.650Z,1019.70
2022-10-06T00:29:01.773Z,1019.73
2022-10-06T00:30:01.935Z,1019.77
2022-10-06T00:31:02.186Z,1019.76
2022-10-06T00:32:02.288Z,1019.75
2022-10-06T00:33:02.447Z,1019.80
2022-10-06T00:34:02.649Z,1019.78
2022-10-06T00:35:02.813Z,1019.80
2022-10-06T00:36:02.988Z,1019.81
2022-10-06T00:37:03.228Z,1019.85
2022-10-06T00:38:03.323Z,1019.84
2022-10-06T00:39:03.476Z,1019.87
2022-10-06T00:40:03.667Z,1019.85
2022-10-06T00:41:03.847Z,1019.86
2022-10-06T00:42:04.005Z,1019.88
2022-10-06T00:43:04.165Z,1019.84
2022-10-06T00:44:04.355Z,1019.86
2022-10-06T00:45:04.517Z,1019.93
2022-10-06T00:46:04.754Z,1019.87
2022-10-06T00:47:04.836Z,1019.86
2022-10-06T00:48:05.036Z,1019.87
2022-10-06T00:49:05.187Z,1019.91
2022-10-06T00:50:05.395Z,1019.98
2022-10-06T00:51:05.566Z,1020.00
2022-10-06T00:52:05.746Z,1019.91
2022-10-06T00:53:05.905Z,1019.92
2022-10-06T00:54:06.096Z,1019.95
2022-10-06T00:55:06.256Z,1019.94
2022-10-06T00:56:06.436Z,1019.95
2022-10-06T00:57:06.650Z,1019.96
2022-10-06T00:58:06.782Z,1019.95
2022-10-06T00:59:06.925Z,1019.94
2022-10-06T01:00:07.076Z,1020.01
2022-10-06T01:01:07.301Z,1019.94
2022-10-06T01:02:07.426Z,1019.95
2022-10-06T01:03:07.713Z,1019.95
2022-10-06T01:04:07.777Z,1019.93
2022-10-06T01:05:07.926Z,1019.94
2022-10-06T01:06:08.137Z,1019.96
2022-10-06T01:07:08.287Z,1020.00
2022-10-06T01:08:08.499Z,1020.02
2022-10-06T01:09:08.660Z,1020.00
2022-10-06T01:10:08.808Z,1020.01
2022-10-06T01:11:09.017Z,1020.08
2022-10-06T01:12:09.177Z,1020.12
2022-10-06T01:13:09.328Z,1020.10
2022-10-06T01:14:09.528Z,1020.03
2022-10-06T01:15:09.678Z,1020.09
2022-10-06T01:16:09.973Z,1020.10
2022-10-06T01:17:10.058Z,1020.13
2022-10-06T01:18:10.217Z,1020.17
2022-10-06T01:19:10.377Z,1020.16
2022-10-06T01:20:10.538Z,1020.13
2022-10-06T01:21:10.708Z,1020.07
2022-10-06T01:22:10.868Z,1020.18
2022-10-06T01:23:11.021Z,1020.16
2022-10-06T01:24:11.218Z,1020.18
2022-10-06T01:25:11.379Z,1020.16
2022-10-06T01:26:11.587Z,1020.21
2022-10-06T01:27:11.738Z,1020.14
2022-10-06T01:28:11.986Z,1020.14
2022-10-06T01:29:12.119Z,1020.17
2022-10-06T01:30:12.278Z,1020.14
2022-10-06T01:31:12.497Z,1020.20
2022-10-06T01:32:12.639Z,1020.11
2022-10-06T01:33:12.795Z,1020.14
2022-10-06T01:34:12.988Z,1020.16
2022-10-06T01:35:13.148Z,1020.17
2022-10-06T01:36:13.326Z,1020.12
2022-10-06T01:37:13.481Z,1020.08
2022-10-06T01:38:13.646Z,1020.14
2022-10-06T01:39:13.800Z,1020.13
2022-10-06T01:40:13.988Z,1020.13
2022-10-06T01:41:14.168Z,1020.13
2022-10-06T01:42:14.324Z,1020.13
2022-10-06T01:43:14.479Z,1020.17
2022-10-06T01:44:14.640Z,1020.16
2022-10-06T01:45:14.810Z,1020.17
2022-10-06T01:46:15.034Z,1020.14
2022-10-06T01:47:15.139Z,1020.12
2022-10-06T01:48:15.330Z,1020.15
2022-10-06T01:49:15.488Z,1020.16
2022-10-06T01:50:15.652Z,1020.15
2022-10-06T01:51:15.820Z,1020.19
2022-10-06T01:52:15.978Z,1020.16
2022-10-06T01:53:16.170Z,1020.17
2022-10-06T01:54:16.327Z,1020.11
2022-10-06T01:55:16.527Z,1020.11
2022-10-06T01:56:16.699Z,1020.07
2022-10-06T01:57:16.849Z,1020.07
2022-10-06T01:58:17.010Z,1020.06
2022-10-06T01:59:17.191Z,1020.11
2022-10-06T02:00:17.341Z,1020.14
2022-10-06T02:01:17.570Z,1020.14
2022-10-06T02:02:17.719Z,1020.14
2022-10-06T02:03:17.891Z,1020.11
2022-10-06T02:04:18.103Z,1020.10
2022-10-06T02:05:18.228Z,1020.13
2022-10-06T02:06:18.443Z,1020.18
2022-10-06T02:07:18.559Z,1020.17
2022-10-06T02:08:18.720Z,1020.09
2022-10-06T02:09:18.877Z,1020.09
2022-10-06T02:10:19.062Z,1020.16
2022-10-06T02:11:19.221Z,1020.14
2022-10-06T02:12:19.373Z,1020.19
2022-10-06T02:13:19.570Z,1020.19
2022-10-06T02:14:19.733Z,1020.18
2022-10-06T02:15:19.890Z,1020.21
2022-10-06T02:16:20.078Z,1020.31
2022-10-06T02:17:20.249Z,1020.30
2022-10-06T02:18:20.401Z,1020.33
2022-10-06T02:19:20.592Z,1020.37
2022-10-06T02:20:20.753Z,1020.36
2022-10-06T02:21:20.912Z,1020.32
2022-10-06T02:22:21.071Z,1020.35
2022-10-06T02:23:21.262Z,1020.32
2022-10-06T02:24:21.421Z,1020.34
2022-10-06T02:25:21.589Z,1020.35
2022-10-06T02:26:21.750Z,1020.40
2022-10-06T02:27:21.911Z,1020.38
2022-10-06T02:28:22.125Z,1020.35
2022-10-06T02:29:22.231Z,1020.36
2022-10-06T02:30:22.466Z,1020.32
2022-10-06T02:31:22.620Z,1020.39
2022-10-06T02:32:22.753Z,1020.39
2022-10-06T02:33:22.911Z,1020.38
2022-10-06T02:34:23.062Z,1020.37
2022-10-06T02:35:23.263Z,1020.39
2022-10-06T02:36:23.442Z,1020.40
2022-10-06T02:37:23.604Z,1020.38
2022-10-06T02:38:23.761Z,1020.44
2022-10-06T02:39:23.951Z,1020.45
2022-10-06T02:40:24.132Z,1020.45
2022-10-06T02:41:24.281Z,1020.47
2022-10-06T02:42:24.442Z,1020.51
2022-10-06T02:43:24.639Z,1020.52
2022-10-06T02:44:24.791Z,1020.50
2022-10-06T02:45:25.012Z,1020.51
2022-10-06T02:46:25.209Z,1020.53
2022-10-06T02:47:25.342Z,1020.57
2022-10-06T02:48:25.778Z,1020.56
2022-10-06T02:49:25.691Z,1020.59
2022-10-06T02:50:25.872Z,1020.60
2022-10-06T02:51:26.033Z,1020.64
2022-10-06T02:52:26.192Z,1020.65
2022-10-06T02:53:26.354Z,1020.67
2022-10-06T02:54:26.512Z,1020.69
2022-10-06T02:55:26.703Z,1020.68
2022-10-06T02:56:26.871Z,1020.70
2022-10-06T02:57:27.032Z,1020.74
2022-10-06T02:58:27.518Z,1020.76
2022-10-06T02:59:27.408Z,1020.76
2022-10-06T03:00:27.555Z,1020.76
2022-10-06T03:01:27.764Z,1020.77
2022-10-06T03:02:27.945Z,1020.81
2022-10-06T03:03:28.052Z,1020.80
2022-10-06T03:04:28.213Z,1020.80
2022-10-06T03:05:28.433Z,1020.81
2022-10-06T03:06:28.552Z,1020.86
2022-10-06T03:07:28.763Z,1020.94
2022-10-06T03:08:29.313Z,1020.95
2022-10-06T03:09:29.102Z,1020.90
2022-10-06T03:10:29.266Z,1020.98
2022-10-06T03:11:29.423Z,1020.97
2022-10-06T03:12:29.599Z,1021.01
2022-10-06T03:13:29.775Z,1021.03
2022-10-06T03:14:29.934Z,1021.04
2022-10-06T03:15:30.142Z,1021.05
2022-10-06T03:16:30.335Z,1021.05
2022-10-06T03:17:30.473Z,1021.13
2022-10-06T03:18:31.229Z,1021.08
2022-10-06T03:19:30.813Z,1021.08
2022-10-06T03:20:30.973Z,1021.15
2022-10-06T03:21:31.134Z,1021.19
2022-10-06T03:22:31.293Z,1021.22
2022-10-06T03:23:31.509Z,1021.23
2022-10-06T03:24:31.654Z,1021.23
2022-10-06T03:25:31.855Z,1021.28
2022-10-06T03:26:32.013Z,1021.38
2022-10-06T03:27:32.195Z,1021.35
2022-10-06T03:28:32.843Z,1021.42
2022-10-06T03:29:32.524Z,1021.45
2022-10-06T03:30:32.703Z,1021.48
2022-10-06T03:31:32.871Z,1021.49
2022-10-06T03:32:33.025Z,1021.63
2022-10-06T03:33:33.224Z,1021.49
2022-10-06T03:34:33.382Z,1021.57
2022-10-06T03:35:33.575Z,1021.72
2022-10-06T03:36:33.744Z,1021.57
2022-10-06T03:37:33.905Z,1021.73
2022-10-06T03:38:34.059Z,1021.78
2022-10-06T03:39:34.230Z,1021.84
2022-10-06T03:40:34.396Z,1021.82
2022-10-06T03:41:34.554Z,1021.91
2022-10-06T03:42:34.715Z,1021.96
2022-10-06T03:43:34.904Z,1021.93
2022-10-06T03:44:35.123Z,1021.98
2022-10-06T03:45:35.253Z,1021.93
2022-10-06T03:46:35.479Z,1021.98
2022-10-06T03:47:35.586Z,1022.01
2022-10-06T03:48:35.746Z,1022.01
2022-10-06T03:49:35.905Z,1022.07
2022-10-06T03:50:36.094Z,1022.11
2022-10-06T03:51:36.255Z,1022.09
2022-10-06T03:52:36.416Z,1022.12
2022-10-06T03:53:36.605Z,1022.13
2022-10-06T03:54:36.766Z,1022.16
2022-10-06T03:55:36.935Z,1022.21
2022-10-06T03:56:37.126Z,1022.22
2022-10-06T03:57:37.288Z,1022.20
2022-10-06T03:58:37.454Z,1022.21
2022-10-06T03:59:37.606Z,1022.27
2022-10-06T04:00:37.875Z,1022.25
2022-10-06T04:01:38.044Z,1022.31
2022-10-06T04:02:38.107Z,1022.30
2022-10-06T04:03:38.306Z,1022.32
2022-10-06T04:04:38.469Z,1022.32
2022-10-06T04:05:38.677Z,1022.35
2022-10-06T04:06:38.839Z,1022.37
2022-10-06T04:07:38.997Z,1022.46
2022-10-06T04:08:39.157Z,1022.51
2022-10-06T04:09:39.317Z,1022.52
2022-10-06T04:10:39.487Z,1022.44
2022-10-06T04:11:39.647Z,1022.43
2022-10-06T04:12:39.807Z,1022.45
2022-10-06T04:13:39.978Z,1022.43
2022-10-06T04:14:40.139Z,1022.43
2022-10-06T04:15:40.317Z,1022.51
2022-10-06T04:16:40.566Z,1022.61
2022-10-06T04:17:40.659Z,1022.59
2022-10-06T04:18:40.827Z,1022.62
2022-10-06T04:19:40.989Z,1022.58
2022-10-06T04:20:41.168Z,1022.56
2022-10-06T04:21:41.346Z,1022.59
2022-10-06T04:22:41.499Z,1022.64
2022-10-06T04:23:41.687Z,1022.68
2022-10-06T04:24:41.879Z,1022.72
2022-10-06T04:25:42.087Z,1022.90
2022-10-06T04:26:42.249Z,1022.82
2022-10-06T04:27:42.407Z,1022.84
2022-10-06T04:28:42.584Z,1022.80
2022-10-06T04:29:42.728Z,1022.85
2022-10-06T04:30:42.917Z,1022.80
2022-10-06T04:31:43.173Z,1022.80
2022-10-06T04:32:43.249Z,1022.85
2022-10-06T04:33:43.447Z,1022.91
2022-10-06T04:34:43.596Z,1022.95
2022-10-06T04:35:43.818Z,1022.90
2022-10-06T04:36:43.950Z,1022.96
2022-10-06T04:37:44.139Z,1022.97
2022-10-06T04:38:44.298Z,1023.04
2022-10-06T04:39:44.489Z,1023.10
2022-10-06T04:40:44.688Z,1023.07
2022-10-06T04:41:44.848Z,1023.01
2022-10-06T04:42:45.007Z,1022.98
2022-10-06T04:43:45.199Z,1022.97
2022-10-06T04:44:45.389Z,1023.01
2022-10-06T04:45:45.692Z,1023.01
2022-10-06T04:46:45.991Z,1023.10
2022-10-06T04:47:45.936Z,1023.11
2022-10-06T04:48:46.089Z,1023.12
2022-10-06T04:49:46.278Z,1023.07
2022-10-06T04:50:46.482Z,1023.15
2022-10-06T04:51:46.639Z,1023.22
2022-10-06T04:52:46.792Z,1023.28
2022-10-06T04:53:46.979Z,1023.14
2022-10-06T04:54:47.150Z,1023.28
2022-10-06T04:55:47.357Z,1023.28
2022-10-06T04:56:47.509Z,1023.36
2022-10-06T04:57:47.669Z,1023.35
2022-10-06T04:58:47.829Z,1023.38
2022-10-06T04:59:48.001Z,1023.42
2022-10-06T05:00:48.228Z,1023.48
2022-10-06T05:01:48.377Z,1023.51
2022-10-06T05:02:48.520Z,1023.53
2022-10-06T05:03:48.701Z,1023.58
2022-10-06T05:04:48.870Z,1023.59
2022-10-06T05:05:49.062Z,1023.62
2022-10-06T05:06:49.200Z,1023.63
2022-10-06T05:07:49.379Z,1023.63
2022-10-06T05:08:49.566Z,1023.70
2022-10-06T05:09:49.740Z,1023.68
2022-10-06T05:10:49.930Z,1023.76
2022-10-06T05:11:50.080Z,1023.73
2022-10-06T05:12:50.240Z,1023.75
2022-10-06T05:13:50.420Z,1023.79
2022-10-06T05:14:50.601Z,1023.83
2022-10-06T05:15:50.803Z,1023.80
2022-10-06T05:16:51.010Z,1023.89
2022-10-06T05:17:51.121Z,1023.89
2022-10-06T05:18:51.307Z,1023.93
2022-10-06T05:19:51.500Z,1023.94
2022-10-06T05:20:51.672Z,1023.95
2022-10-06T05:21:51.821Z,1023.94
2022-10-06T05:22:51.972Z,1023.95
2022-10-06T05:23:52.149Z,1024.01
2022-10-06T05:24:52.300Z,1024.06
2022-10-06T05:25:52.508Z,1024.03
2022-10-06T05:26:52.652Z,1024.03
2022-10-06T05:27:52.832Z,1024.01
2022-10-06T05:28:53.037Z,1024.13
2022-10-06T05:29:53.191Z,1024.15
2022-10-06T05:30:53.391Z,1024.23
2022-10-06T05:31:53.575Z,1024.23
2022-10-06T05:32:53.704Z,1024.29
2022-10-06T05:33:53.882Z,1024.29
2022-10-06T05:34:54.081Z,1024.31
2022-10-06T05:35:54.242Z,1024.31
2022-10-06T05:36:54.429Z,1024.34
2022-10-06T05:37:54.601Z,1024.42
2022-10-06T05:38:54.802Z,1024.43
2022-10-06T05:39:54.971Z,1024.52
2022-10-06T05:40:55.160Z,1024.54
2022-10-06T05:41:55.321Z,1024.53
2022-10-06T05:42:55.462Z,1024.55
2022-10-06T05:43:55.644Z,1024.58
2022-10-06T05:44:55.825Z,1024.63
2022-10-06T05:45:56.082Z,1024.62
2022-10-06T05:46:56.162Z,1024.68
2022-10-06T05:47:56.342Z,1024.70
2022-10-06T05:48:56.491Z,1024.73
2022-10-06T05:49:56.676Z,1024.81
2022-10-06T05:50:56.872Z,1024.85
2022-10-06T05:51:57.012Z,1024.87
2022-10-06T05:52:57.192Z,1024.88
2022-10-06T05:53:57.365Z,1024.96
2022-10-06T05:54:57.542Z,1025.00
2022-10-06T05:55:57.756Z,1025.05
2022-10-06T05:56:57.892Z,1025.06
2022-10-06T05:57:58.082Z,1025.07
2022-10-06T05:58:58.238Z,1025.07
2022-10-06T05:59:58.423Z,1025.14
2022-10-06T06:00:58.606Z,1025.16
2022-10-06T06:01:58.800Z,1025.20
2022-10-06T06:02:58.960Z,1025.17
2022-10-06T06:03:59.084Z,1025.27
2022-10-06T06:04:59.244Z,1025.29
2022-10-06T06:05:59.451Z,1025.30
2022-10-06T06:06:59.613Z,1025.36
2022-10-06T06:07:59.793Z,1025.35
2022-10-06T06:08:59.975Z,1025.29
2022-10-06T06:10:00.154Z,1025.34
2022-10-06T06:11:00.343Z,1025.41
2022-10-06T06:12:00.564Z,1025.43
2022-10-06T06:13:00.684Z,1025.50
2022-10-06T06:14:00.864Z,1025.50
2022-10-06T06:15:01.043Z,1025.48
2022-10-06T06:16:01.243Z,1025.52
2022-10-06T06:17:01.464Z,1025.52
2022-10-06T06:18:01.633Z,1025.55
2022-10-06T06:19:01.777Z,1025.63
2022-10-06T06:20:01.956Z,1025.67
2022-10-06T06:21:02.153Z,1025.66
2022-10-06T06:22:02.324Z,1025.69
2022-10-06T06:23:02.494Z,1025.70
2022-10-06T06:24:02.674Z,1025.73
2022-10-06T06:25:02.854Z,1025.77
2022-10-06T06:26:03.044Z,1025.79
2022-10-06T06:27:03.196Z,1025.81
2022-10-06T06:28:03.414Z,1025.85
2022-10-06T06:29:03.563Z,1025.84
2022-10-06T06:30:03.735Z,1025.89
2022-10-06T06:31:03.988Z,1025.87
2022-10-06T06:32:04.091Z,1025.93
2022-10-06T06:33:04.273Z,1025.94
2022-10-06T06:34:04.444Z,1025.98
2022-10-06T06:35:04.624Z,1025.92
2022-10-06T06:36:04.821Z,1026.02
2022-10-06T06:37:08.470Z,1026.03
2022-10-06T06:38:05.144Z,1026.03
2022-10-06T06:39:05.325Z,1025.99
2022-10-06T06:40:05.509Z,1026.02
2022-10-06T06:41:05.715Z,1026.11
2022-10-06T06:42:05.855Z,1026.09
2022-10-06T06:43:06.034Z,1026.12
2022-10-06T06:44:06.214Z,1026.14
2022-10-06T06:45:06.414Z,1026.14
2022-10-06T06:46:06.598Z,1026.20
2022-10-06T06:47:06.734Z,1026.28
2022-10-06T06:48:06.911Z,1026.27
2022-10-06T06:49:07.096Z,1026.29
2022-10-06T06:50:07.285Z,1026.31
2022-10-06T06:51:07.433Z,1026.33
2022-10-06T06:52:07.613Z,1026.36
2022-10-06T06:53:08.190Z,1026.40
2022-10-06T06:54:07.995Z,1026.38
2022-10-06T06:55:08.168Z,1026.40
2022-10-06T06:56:08.306Z,1026.44
2022-10-06T06:57:08.488Z,1026.47
2022-10-06T06:58:08.666Z,1026.47
2022-10-06T06:59:08.856Z,1026.44
2022-10-06T07:00:09.046Z,1026.48
2022-10-06T07:01:09.255Z,1026.46
2022-10-06T07:02:09.414Z,1026.49
2022-10-06T07:03:09.557Z,1026.56
2022-10-06T07:04:09.745Z,1026.55
2022-10-06T07:05:09.927Z,1026.55
2022-10-06T07:06:10.097Z,1026.60
2022-10-06T07:07:10.275Z,1026.64
2022-10-06T07:08:10.455Z,1026.64
2022-10-06T07:09:10.643Z,1026.69
2022-10-06T07:10:10.826Z,1026.68
2022-10-06T07:11:11.004Z,1026.73
2022-10-06T07:12:11.175Z,1026.75
2022-10-06T07:13:11.581Z,1026.71
2022-10-06T07:14:11.526Z,1026.75
2022-10-06T07:15:12.733Z,1026.80
2022-10-06T07:16:11.938Z,1026.83
2022-10-06T07:17:12.096Z,1026.88
2022-10-06T07:18:12.256Z,1026.87
2022-10-06T07:19:12.444Z,1026.88
2022-10-06T07:20:12.638Z,1026.91
2022-10-06T07:21:12.806Z,1026.93
2022-10-06T07:22:12.995Z,1026.93
2022-10-06T07:23:13.176Z,1026.87
2022-10-06T07:24:13.350Z,1026.95
2022-10-06T07:25:13.557Z,1026.94
2022-10-06T07:26:13.717Z,1026.95
2022-10-06T07:27:13.898Z,1026.98
2022-10-06T07:28:14.163Z,1027.00
2022-10-06T07:29:14.258Z,1027.01
2022-10-06T07:30:14.455Z,1027.06
2022-10-06T07:31:14.633Z,1027.08
2022-10-06T07:32:14.787Z,1027.06
2022-10-06T07:33:14.966Z,1027.15
2022-10-06T07:34:15.147Z,1027.15
2022-10-06T07:35:15.357Z,1027.11
2022-10-06T07:36:15.496Z,1027.13
2022-10-06T07:37:15.667Z,1027.15
2022-10-06T07:38:15.848Z,1027.13
2022-10-06T07:39:16.030Z,1027.09
2022-10-06T07:40:16.228Z,1027.16
2022-10-06T07:41:20.485Z,1027.17
2022-10-06T07:42:16.568Z,1027.20
2022-10-06T07:43:16.759Z,1027.25
2022-10-06T07:44:16.946Z,1027.23
2022-10-06T07:45:17.142Z,1027.33
2022-10-06T07:46:17.361Z,1027.33
2022-10-06T07:47:17.497Z,1027.35
2022-10-06T07:48:17.680Z,1027.29
2022-10-06T07:49:17.858Z,1027.27
2022-10-06T07:50:18.071Z,1027.32
2022-10-06T07:51:18.219Z,1027.41
2022-10-06T07:52:18.359Z,1027.44
2022-10-06T07:53:18.519Z,1027.39
2022-10-06T07:54:18.699Z,1027.43
2022-10-06T07:55:18.900Z,1027.48
2022-10-06T07:56:19.079Z,1027.45
2022-10-06T07:57:19.239Z,1027.46
2022-10-06T07:58:19.428Z,1027.48
2022-10-06T07:59:19.613Z,1027.53
2022-10-06T08:00:19.839Z,1027.47
2022-10-06T08:01:20.030Z,1027.47
2022-10-06T08:02:20.171Z,1027.49
2022-10-06T08:03:20.346Z,1027.59
2022-10-06T08:04:20.480Z,1027.61
2022-10-06T08:05:20.650Z,1027.55
2022-10-06T08:06:20.800Z,1027.53
2022-10-06T08:07:20.983Z,1027.50
2022-10-06T08:08:21.149Z,1027.62
2022-10-06T08:09:21.320Z,1027.60
2022-10-06T08:10:21.529Z,1027.62
2022-10-06T08:11:21.733Z,1027.62
2022-10-06T08:12:21.860Z,1027.62
2022-10-06T08:13:22.040Z,1027.60
2022-10-06T08:14:22.230Z,1027.59
2022-10-06T08:15:22.431Z,1027.60
2022-10-06T08:16:22.692Z,1027.65
2022-10-06T08:17:22.791Z,1027.61
2022-10-06T08:18:44.367Z,1027.65
2022-10-06T08:19:24.141Z,1027.56
2022-10-06T08:20:23.316Z,1027.67
2022-10-06T08:21:23.492Z,1027.65
2022-10-06T08:22:23.672Z,1027.75
2022-10-06T08:23:23.854Z,1027.73
2022-10-06T08:24:24.033Z,1027.70
2022-10-06T08:25:24.222Z,1027.75
2022-10-06T08:26:24.364Z,1027.70
2022-10-06T08:27:24.566Z,1027.79
2022-10-06T08:28:24.767Z,1027.82
2022-10-06T08:29:24.888Z,1027.76
2022-10-06T08:30:25.070Z,1027.76
2022-10-06T08:31:25.331Z,1027.75
2022-10-06T08:32:25.427Z,1027.82
2022-10-06T08:33:25.624Z,1027.76
2022-10-06T08:34:25.774Z,1027.87
2022-10-06T08:35:25.967Z,1027.85
2022-10-06T08:36:30.913Z,1027.83
2022-10-06T08:37:27.455Z,1027.89
2022-10-06T08:38:26.448Z,1027.88
2022-10-06T08:39:26.629Z,1027.91
2022-10-06T08:40:26.827Z,1027.94
2022-10-06T08:41:27.005Z,1027.98
2022-10-06T08:42:27.176Z,1027.94
2022-10-06T08:43:27.386Z,1027.96
2022-10-06T08:44:27.527Z,1027.97
2022-10-06T08:45:27.736Z,1027.87
2022-10-06T08:46:27.869Z,1027.95
2022-10-06T08:47:28.058Z,1027.96
2022-10-06T08:48:28.247Z,1027.96
2022-10-06T08:49:28.417Z,1028.04
2022-10-06T08:50:28.610Z,1028.10
2022-10-06T08:51:28.789Z,1028.00
2022-10-06T08:52:28.968Z,1027.96
2022-10-06T08:53:29.141Z,1028.01
2022-10-06T08:54:29.330Z,1028.03
2022-10-06T08:55:29.510Z,1027.95
2022-10-06T08:56:29.683Z,1028.12
2022-10-06T08:57:29.896Z,1028.03
2022-10-06T08:58:30.023Z,1028.02
2022-10-06T08:59:30.190Z,1028.00
2022-10-06T09:00:30.372Z,1028.00
2022-10-06T09:01:30.631Z,1027.96
2022-10-06T09:02:30.779Z,1027.96
2022-10-06T09:03:30.914Z,1027.98
2022-10-06T09:04:31.081Z,1027.99
2022-10-06T09:05:31.251Z,1027.99
2022-10-06T09:06:31.404Z,1028.12
2022-10-06T09:07:31.584Z,1028.19
2022-10-06T09:08:31.753Z,1028.19
2022-10-06T09:09:31.943Z,1028.26
2022-10-06T09:10:32.123Z,1028.10
2022-10-06T09:11:32.312Z,1028.25
2022-10-06T09:12:32.492Z,1028.20
2022-10-06T09:13:32.663Z,1028.13
2022-10-06T09:14:32.836Z,1028.22
2022-10-06T09:15:33.044Z,1028.26
2022-10-06T09:16:33.229Z,1028.18
2022-10-06T09:17:33.353Z,1028.19
2022-10-06T09:18:49.824Z,1028.23
2022-10-06T09:19:34.714Z,1028.25
2022-10-06T09:20:33.895Z,1028.27
2022-10-06T09:21:34.084Z,1028.37
2022-10-06T09:22:34.257Z,1028.38
2022-10-06T09:23:34.436Z,1028.34
2022-10-06T09:24:34.598Z,1028.35
2022-10-06T09:25:34.806Z,1028.38
2022-10-06T09:26:34.946Z,1028.42
2022-10-06T09:27:35.125Z,1028.41
2022-10-06T09:28:35.380Z,1028.40
2022-10-06T09:29:35.476Z,1028.50
2022-10-06T09:30:35.666Z,1028.48
2022-10-06T09:31:35.928Z,1028.40
2022-10-06T09:32:36.016Z,1028.45
2022-10-06T09:33:36.197Z,1028.54
2022-10-06T09:34:36.367Z,1028.53
2022-10-06T09:35:36.586Z,1028.49
2022-10-06T09:36:36.741Z,1028.41
2022-10-06T09:37:36.948Z,1028.52
2022-10-06T09:38:37.088Z,1028.45
2022-10-06T09:39:37.271Z,1028.46
2022-10-06T09:40:37.442Z,1028.41
2022-10-06T09:41:37.615Z,1028.45
2022-10-06T09:42:37.788Z,1028.46
2022-10-06T09:43:37.958Z,1028.45
2022-10-06T09:44:38.109Z,1028.53
2022-10-06T09:45:38.318Z,1028.50
2022-10-06T09:46:38.478Z,1028.47
2022-10-06T09:47:38.690Z,1028.57
2022-10-06T09:48:38.900Z,1028.48
2022-10-06T09:49:39.019Z,1028.48
2022-10-06T09:50:39.218Z,1028.49
2022-10-06T09:51:39.359Z,1028.52
2022-10-06T09:52:39.552Z,1028.61
2022-10-06T09:53:39.729Z,1028.51
2022-10-06T09:54:39.910Z,1028.53
2022-10-06T09:55:40.119Z,1028.59
2022-10-06T09:56:40.260Z,1028.59
2022-10-06T09:57:40.441Z,1028.63
2022-10-06T09:58:40.620Z,1028.65
2022-10-06T09:59:40.800Z,1028.65
2022-10-06T10:00:41.022Z,1028.71
2022-10-06T10:01:41.170Z,1028.74
2022-10-06T10:02:41.406Z,1028.74
2022-10-06T10:03:44.547Z,1028.78
2022-10-06T10:04:42.701Z,1028.77
2022-10-06T10:05:41.874Z,1028.81
2022-10-06T10:06:42.034Z,1028.77
2022-10-06T10:07:42.211Z,1028.79
2022-10-06T10:08:42.392Z,1028.79
2022-10-06T10:09:42.612Z,1028.80
2022-10-06T10:10:42.752Z,1028.85
2022-10-06T10:11:42.932Z,1028.79
2022-10-06T10:12:43.122Z,1028.88
2022-10-06T10:13:43.307Z,1028.84
2022-10-06T10:14:43.501Z,1028.88
2022-10-06T10:15:43.733Z,1028.85
2022-10-06T10:16:43.811Z,1028.89
2022-10-06T10:17:43.994Z,1028.94
2022-10-06T10:18:44.180Z,1028.98
2022-10-06T10:19:44.372Z,1028.85
2022-10-06T10:20:44.542Z,1028.97
2022-10-06T10:21:44.692Z,1028.92
2022-10-06T10:22:44.862Z,1028.90
2022-10-06T10:23:45.044Z,1028.98
2022-10-06T10:24:45.244Z,1029.01
2022-10-06T10:25:45.386Z,1029.02
2022-10-06T10:26:45.571Z,1029.05
2022-10-06T10:27:45.759Z,1029.01
2022-10-06T10:28:45.933Z,1028.99
2022-10-06T10:29:46.123Z,1029.01
2022-10-06T10:30:46.277Z,1029.06
2022-10-06T10:31:46.494Z,1029.04
2022-10-06T10:32:46.643Z,1029.01
2022-10-06T10:33:59.165Z,1029.05
2022-10-06T10:34:48.087Z,1029.01
2022-10-06T10:35:47.172Z,1029.00
2022-10-06T10:36:47.354Z,1029.14
2022-10-06T10:37:47.536Z,1029.12
2022-10-06T10:38:47.733Z,1029.14
2022-10-06T10:39:47.913Z,1029.21
2022-10-06T10:40:48.063Z,1029.18
2022-10-06T10:41:48.244Z,1029.19
2022-10-06T10:42:48.435Z,1029.16
2022-10-06T10:43:48.610Z,1029.21
2022-10-06T10:44:48.825Z,1029.21
2022-10-06T10:45:48.955Z,1029.24
2022-10-06T10:46:49.198Z,1029.17
2022-10-06T10:47:49.304Z,1029.19
2022-10-06T10:48:49.526Z,1029.18
2022-10-06T10:49:49.664Z,1029.18
2022-10-06T10:50:49.835Z,1029.12
2022-10-06T10:51:49.984Z,1029.10
2022-10-06T10:52:50.170Z,1029.12
2022-10-06T10:53:50.346Z,1029.14
2022-10-06T10:54:50.538Z,1029.16
2022-10-06T10:55:50.690Z,1029.14
2022-10-06T10:56:50.873Z,1029.14
2022-10-06T10:57:51.067Z,1029.14
2022-10-06T10:58:51.216Z,1029.14
2022-10-06T10:59:51.386Z,1029.15
2022-10-06T11:00:51.580Z,1029.15
2022-10-06T11:01:51.789Z,1029.13
2022-10-06T11:02:51.906Z,1029.17
2022-10-06T11:03:52.087Z,1029.19
2022-10-06T11:04:52.286Z,1029.17
2022-10-06T11:05:52.429Z,1029.16
2022-10-06T11:06:52.625Z,1029.19
2022-10-06T11:07:52.766Z,1029.16
2022-10-06T11:08:52.967Z,1029.20
2022-10-06T11:09:53.127Z,1029.20
2022-10-06T11:10:53.294Z,1029.24
2022-10-06T11:11:53.438Z,1029.28
2022-10-06T11:12:53.627Z,1029.25
2022-10-06T11:13:53.808Z,1029.26
2022-10-06T11:14:54.019Z,1029.32
2022-10-06T11:15:54.226Z,1029.32
2022-10-06T11:16:54.358Z,1029.33
2022-10-06T11:17:54.519Z,1029.33
2022-10-06T11:18:54.719Z,1029.26
2022-10-06T11:19:54.907Z,1029.26
2022-10-06T11:20:55.068Z,1029.31
2022-10-06T11:21:55.212Z,1029.30
2022-10-06T11:22:55.388Z,1029.33
2022-10-06T11:23:55.579Z,1029.33
2022-10-06T11:24:56.161Z,1029.35
2022-10-06T11:25:55.919Z,1029.35
2022-10-06T11:26:56.141Z,1029.40
2022-10-06T11:27:56.447Z,1029.45
2022-10-06T11:28:56.459Z,1029.38
2022-10-06T11:29:56.944Z,1029.48
2022-10-06T11:30:56.821Z,1029.43
2022-10-06T11:31:57.083Z,1029.48
2022-10-06T11:32:57.180Z,1029.42
2022-10-06T11:33:57.360Z,1029.40
2022-10-06T11:34:57.559Z,1029.45
2022-10-06T11:35:57.730Z,1029.38
2022-10-06T11:36:57.899Z,1029.38
2022-10-06T11:37:58.080Z,1029.42
2022-10-06T11:38:58.260Z,1029.46
2022-10-06T11:39:58.716Z,1029.43
2022-10-06T11:40:58.646Z,1029.46
2022-10-06T11:41:58.803Z,1029.48
2022-10-06T11:42:58.970Z,1029.48
2022-10-06T11:43:59.165Z,1029.46
2022-10-06T11:44:59.745Z,1029.40
2022-10-06T11:45:59.562Z,1029.39
2022-10-06T11:46:59.680Z,1029.40
2022-10-06T11:47:59.861Z,1029.40
2022-10-06T11:49:00.041Z,1029.44
2022-10-06T11:50:00.245Z,1029.42
2022-10-06T11:51:00.391Z,1029.43
2022-10-06T11:52:04.521Z,1029.40
2022-10-06T11:53:00.741Z,1029.36
2022-10-06T11:54:00.927Z,1029.30
2022-10-06T11:55:01.398Z,1029.43
2022-10-06T11:56:01.286Z,1029.49
2022-10-06T11:57:01.462Z,1029.48
2022-10-06T11:58:05.495Z,1029.44
2022-10-06T11:59:02.802Z,1029.47
2022-10-06T12:00:02.002Z,1029.39
2022-10-06T12:01:02.198Z,1029.40
2022-10-06T12:02:02.445Z,1029.50
2022-10-06T12:03:02.602Z,1029.41
2022-10-06T12:04:02.703Z,1029.33
2022-10-06T12:05:02.870Z,1029.43
2022-10-06T12:06:03.002Z,1029.48
2022-10-06T12:07:03.184Z,1029.51
2022-10-06T12:08:03.363Z,1029.51